Kingston, Illinois
Current Conditions -  °F | °C
As of 11:35 PM on Wednesday 26 Nov 2014 (Local Time) from KDKB Reporting Station
Haze Haze  
Wind Chill: 12°   Ceiling: 3300
Heat Index: 21°   Visibility: 5mi
Dew Point: 18°   Wind: 7mph
Humidity: 88%   Direction: 330°NNW
Pressure: 30.21"   Gusts: NA
Location:  42.1°N, 88.76°W
Report Text: KDKB 270535Z AUTO 33006KT 5SM BR OVC033 M06/M08 A3021 RMK AO2 T10621079
Loading
Personal Weather Stations






























Interactive Weather Map New forecast layout! Learn more

10-Day Weather Forecast

Advertisements
Track Severe Weather on mobile